sensor_id;sensor_type;location;lat;lon;timestamp;noise_LAeq;noise_LA_min;noise_LA_max;noise_LA01;noise_LA95
60116;Laerm;62818;49.394;8.686;2023-01-10T00:00:14;62.92;44.65;71.65;;
60116;Laerm;62818;49.394;8.686;2023-01-10T00:01:14;63.43;44.94;71.28;;
60116;Laerm;62818;49.394;8.686;2023-01-10T00:02:15;62.89;44.58;73.41;;
60116;Laerm;62818;49.394;8.686;2023-01-10T00:03:18;65.09;44.69;75.19;;
60116;Laerm;62818;49.394;8.686;2023-01-10T00:04:21;62.68;44.27;75.73;;
60116;Laerm;62818;49.394;8.686;2023-01-10T00:05:25;63.07;44.73;72.62;;
60116;Laerm;62818;49.394;8.686;2023-01-10T00:06:28;64.01;44.62;71.96;;
60116;Laerm;62818;49.394;8.686;2023-01-10T00:07:31;63.71;45.07;71.46;;
60116;Laerm;62818;49.394;8.686;2023-01-10T00:08:32;64.01;44.83;71.95;;
60116;Laerm;62818;49.394;8.686;2023-01-10T00:09:32;63.38;44.47;72.24;;
60116;Laerm;62818;49.394;8.686;2023-01-10T00:10:33;63.66;44.47;71.68;;
60116;Laerm;62818;49.394;8.686;2023-01-10T00:11:34;63.34;44.51;72.61;;
60116;Laerm;62818;49.394;8.686;2023-01-10T00:12:57;62.84;44.83;71.53;;
60116;Laerm;62818;49.394;8.686;2023-01-10T00:14:16;62.36;44.97;71.65;;
60116;Laerm;62818;49.394;8.686;2023-01-10T00:15:19;63.18;44.58;73.54;;
60116;Laerm;62818;49.394;8.686;2023-01-10T00:16:22;63.54;44.90;75.73;;
60116;Laerm;62818;49.394;8.686;2023-01-10T00:17:25;65.06;44.97;75.43;;
60116;Laerm;62818;49.394;8.686;2023-01-10T00:18:26;63.96;44.58;73.08;;
60116;Laerm;62818;49.394;8.686;2023-01-10T00:19:30;63.54;44.62;72.40;;
60116;Laerm;62818;49.394;8.686;2023-01-10T00:20:30;64.44;46.35;71.58;;
60116;Laerm;62818;49.394;8.686;2023-01-10T00:21:34;62.75;44.51;73.03;;
60116;Laerm;62818;49.394;8.686;2023-01-10T00:22:38;63.61;44.58;71.47;;
60116;Laerm;62818;49.394;8.686;2023-01-10T00:23:42;63.05;44.73;73.36;;
60116;Laerm;62818;49.394;8.686;2023-01-10T00:24:45;65.40;44.54;75.58;;
60116;Laerm;62818;49.394;8.686;2023-01-10T00:25:46;65.73;44.86;75.69;;
60116;Laerm;62818;49.394;8.686;2023-01-10T00:26:50;62.99;44.47;72.00;;
60116;Laerm;62818;49.394;8.686;2023-01-10T00:27:54;66.01;44.97;75.85;;
60116;Laerm;62818;49.394;8.686;2023-01-10T00:29:27;65.86;44.62;76.98;;
60116;Laerm;62818;49.394;8.686;2023-01-10T00:30:28;66.02;44.51;76.70;;
60116;Laerm;62818;49.394;8.686;2023-01-10T00:31:28;63.93;44.11;73.10;;
60116;Laerm;62818;49.394;8.686;2023-01-10T00:32:31;65.52;44.83;75.32;;
60116;Laerm;62818;49.394;8.686;2023-01-10T00:33:34;63.98;44.82;72.21;;
60116;Laerm;62818;49.394;8.686;2023-01-10T00:34:37;63.49;44.54;72.68;;
60116;Laerm;62818;49.394;8.686;2023-01-10T00:35:39;63.72;45.27;72.52;;
60116;Laerm;62818;49.394;8.686;2023-01-10T00:36:41;63.41;44.87;72.74;;
60116;Laerm;62818;49.394;8.686;2023-01-10T00:37:42;63.35;44.82;71.61;;
60116;Laerm;62818;49.394;8.686;2023-01-10T00:38:44;63.08;44.58;72.66;;
60116;Laerm;62818;49.394;8.686;2023-01-10T00:39:45;62.77;44.80;70.87;;
60116;Laerm;62818;49.394;8.686;2023-01-10T00:40:48;66.68;44.73;75.92;;
60116;Laerm;62818;49.394;8.686;2023-01-10T00:41:51;66.89;44.51;76.54;;
60116;Laerm;62818;49.394;8.686;2023-01-10T00:43:11;62.68;44.62;75.69;;
60116;Laerm;62818;49.394;8.686;2023-01-10T00:44:30;66.09;44.51;77.35;;
60116;Laerm;62818;49.394;8.686;2023-01-10T00:45:36;65.10;44.43;76.79;;
60116;Laerm;62818;49.394;8.686;2023-01-10T00:46:36;65.71;44.51;75.59;;
60116;Laerm;62818;49.394;8.686;2023-01-10T00:47:39;67.15;45.27;76.54;;
60116;Laerm;62818;49.394;8.686;2023-01-10T00:48:42;65.74;44.56;76.66;;
60116;Laerm;62818;49.394;8.686;2023-01-10T00:49:42;65.14;44.31;75.93;;
60116;Laerm;62818;49.394;8.686;2023-01-10T00:50:48;65.45;44.35;76.66;;
60116;Laerm;62818;49.394;8.686;2023-01-10T00:51:49;66.91;44.47;76.17;;
60116;Laerm;62818;49.394;8.686;2023-01-10T00:52:51;65.95;44.07;75.79;;
60116;Laerm;62818;49.394;8.686;2023-01-10T00:53:57;66.52;44.19;75.97;;
60116;Laerm;62818;49.394;8.686;2023-01-10T00:54:57;67.08;44.07;76.87;;
60116;Laerm;62818;49.394;8.686;2023-01-10T00:55:58;66.40;44.38;76.80;;
60116;Laerm;62818;49.394;8.686;2023-01-10T00:57:01;66.58;44.23;75.83;;
60116;Laerm;62818;49.394;8.686;2023-01-10T00:58:03;63.63;44.35;72.98;;
60116;Laerm;62818;49.394;8.686;2023-01-10T00:59:09;63.57;43.99;72.03;;
60116;Laerm;62818;49.394;8.686;2023-01-10T01:00:12;63.67;44.15;72.38;;
60116;Laerm;62818;49.394;8.686;2023-01-10T01:01:17;63.02;44.15;72.98;;
60116;Laerm;62818;49.394;8.686;2023-01-10T01:02:20;64.22;44.35;71.39;;
60116;Laerm;62818;49.394;8.686;2023-01-10T01:03:21;63.63;44.23;71.85;;
60116;Laerm;62818;49.394;8.686;2023-01-10T01:04:26;63.85;44.27;71.97;;
60116;Laerm;62818;49.394;8.686;2023-01-10T01:05:27;63.92;44.11;72.64;;
60116;Laerm;62818;49.394;8.686;2023-01-10T01:06:27;62.74;44.35;70.96;;
60116;Laerm;62818;49.394;8.686;2023-01-10T01:07:32;63.49;43.94;71.20;;
60116;Laerm;62818;49.394;8.686;2023-01-10T01:08:35;64.19;44.27;71.96;;
60116;Laerm;62818;49.394;8.686;2023-01-10T01:09:38;62.62;44.27;72.45;;
60116;Laerm;62818;49.394;8.686;2023-01-10T01:10:58;45.40;44.19;48.10;;
60116;Laerm;62818;49.394;8.686;2023-01-10T01:12:01;62.73;44.62;71.65;;
60116;Laerm;62818;49.394;8.686;2023-01-10T01:13:16;65.65;44.27;76.90;;
60116;Laerm;62818;49.394;8.686;2023-01-10T01:14:19;62.44;44.07;71.33;;
60116;Laerm;62818;49.394;8.686;2023-01-10T01:15:24;66.50;44.11;76.41;;
60116;Laerm;62818;49.394;8.686;2023-01-10T01:16:27;63.77;44.12;72.66;;
60116;Laerm;62818;49.394;8.686;2023-01-10T01:17:28;63.44;44.15;73.12;;
60116;Laerm;62818;49.394;8.686;2023-01-10T01:18:33;63.52;44.31;72.21;;
60116;Laerm;62818;49.394;8.686;2023-01-10T01:19:35;65.58;44.27;75.47;;
60116;Laerm;62818;49.394;8.686;2023-01-10T01:20:40;64.82;43.94;76.09;;
60116;Laerm;62818;49.394;8.686;2023-01-10T01:21:44;65.63;44.69;75.33;;
60116;Laerm;62818;49.394;8.686;2023-01-10T01:22:50;63.89;44.27;72.66;;
60116;Laerm;62818;49.394;8.686;2023-01-10T01:23:50;66.02;44.03;76.30;;
60116;Laerm;62818;49.394;8.686;2023-01-10T01:24:51;64.33;44.11;75.50;;
60116;Laerm;62818;49.394;8.686;2023-01-10T01:25:55;63.31;44.31;72.83;;
60116;Laerm;62818;49.394;8.686;2023-01-10T01:26:55;64.11;44.07;73.38;;
60116;Laerm;62818;49.394;8.686;2023-01-10T01:27:58;65.91;44.47;75.78;;
60116;Laerm;62818;49.394;8.686;2023-01-10T01:29:01;66.66;44.62;76.11;;
60116;Laerm;62818;49.394;8.686;2023-01-10T01:30:03;67.01;44.19;75.93;;
60116;Laerm;62818;49.394;8.686;2023-01-10T01:31:10;66.46;44.07;77.13;;
60116;Laerm;62818;49.394;8.686;2023-01-10T01:32:13;66.61;44.07;76.68;;
60116;Laerm;62818;49.394;8.686;2023-01-10T01:33:17;65.88;44.27;75.82;;
60116;Laerm;62818;49.394;8.686;2023-01-10T01:34:18;64.02;44.39;75.60;;
60116;Laerm;62818;49.394;8.686;2023-01-10T01:35:18;64.04;44.43;72.80;;
60116;Laerm;62818;49.394;8.686;2023-01-10T01:36:21;63.42;44.43;73.89;;
60116;Laerm;62818;49.394;8.686;2023-01-10T01:37:22;65.12;44.47;76.10;;
60116;Laerm;62818;49.394;8.686;2023-01-10T01:38:25;64.38;44.90;76.34;;
60116;Laerm;62818;49.394;8.686;2023-01-10T01:39:30;64.15;45.39;72.17;;
60116;Laerm;62818;49.394;8.686;2023-01-10T01:40:34;63.83;44.39;71.89;;
60116;Laerm;62818;49.394;8.686;2023-01-10T01:41:39;62.51;44.11;72.90;;
60116;Laerm;62818;49.394;8.686;2023-01-10T01:43:00;61.82;44.03;72.35;;
60116;Laerm;62818;49.394;8.686;2023-01-10T01:44:14;62.87;44.65;72.35;;
60116;Laerm;62818;49.394;8.686;2023-01-10T01:46:18;65.64;44.19;75.83;;
60116;Laerm;62818;49.394;8.686;2023-01-10T01:47:26;63.53;44.31;72.42;;
60116;Laerm;62818;49.394;8.686;2023-01-10T01:48:41;64.35;44.31;75.72;;
60116;Laerm;62818;49.394;8.686;2023-01-10T01:49:44;62.95;44.07;74.91;;
60116;Laerm;62818;49.394;8.686;2023-01-10T01:51:22;67.07;44.35;76.93;;
60116;Laerm;62818;49.394;8.686;2023-01-10T01:52:29;62.56;44.39;73.28;;
60116;Laerm;62818;49.394;8.686;2023-01-10T01:53:51;63.61;44.35;75.34;;
60116;Laerm;62818;49.394;8.686;2023-01-10T01:55:01;65.29;44.31;75.34;;
60116;Laerm;62818;49.394;8.686;2023-01-10T01:56:16;64.45;44.39;75.44;;
60116;Laerm;62818;49.394;8.686;2023-01-10T01:57:28;64.76;44.35;76.68;;
60116;Laerm;62818;49.394;8.686;2023-01-10T01:58:52;65.88;44.42;77.72;;
60116;Laerm;62818;49.394;8.686;2023-01-10T01:59:54;63.26;44.58;75.84;;
60116;Laerm;62818;49.394;8.686;2023-01-10T02:00:55;64.86;44.23;75.07;;
60116;Laerm;62818;49.394;8.686;2023-01-10T02:02:05;66.33;44.31;75.64;;
60116;Laerm;62818;49.394;8.686;2023-01-10T02:03:07;67.57;44.03;76.94;;
60116;Laerm;62818;49.394;8.686;2023-01-10T02:04:17;65.09;44.19;75.74;;
60116;Laerm;62818;49.394;8.686;2023-01-10T02:05:25;65.48;44.54;75.43;;
60116;Laerm;62818;49.394;8.686;2023-01-10T02:06:28;66.50;44.54;76.52;;
60116;Laerm;62818;49.394;8.686;2023-01-10T02:07:36;65.84;44.23;75.92;;
60116;Laerm;62818;49.394;8.686;2023-01-10T02:08:48;66.05;44.94;76.19;;
60116;Laerm;62818;49.394;8.686;2023-01-10T02:11:23;65.64;44.80;75.61;;
60116;Laerm;62818;49.394;8.686;2023-01-10T02:12:29;66.14;44.97;76.53;;
60116;Laerm;62818;49.394;8.686;2023-01-10T02:13:32;66.24;44.35;75.72;;
60116;Laerm;62818;49.394;8.686;2023-01-10T02:14:39;66.90;44.87;77.14;;
60116;Laerm;62818;49.394;8.686;2023-01-10T02:15:42;67.65;44.51;77.06;;
60116;Laerm;62818;49.394;8.686;2023-01-10T02:16:42;64.86;44.47;75.40;;
60116;Laerm;62818;49.394;8.686;2023-01-10T02:17:50;65.00;44.80;75.75;;
60116;Laerm;62818;49.394;8.686;2023-01-10T02:18:54;65.52;44.58;76.54;;
60116;Laerm;62818;49.394;8.686;2023-01-10T02:20:03;65.88;44.65;76.63;;
60116;Laerm;62818;49.394;8.686;2023-01-10T02:21:40;65.33;44.38;76.38;;
60116;Laerm;62818;49.394;8.686;2023-01-10T02:33:30;65.06;44.43;76.42;;
60116;Laerm;62818;49.394;8.686;2023-01-10T02:34:52;65.92;44.31;75.93;;
60116;Laerm;62818;49.394;8.686;2023-01-10T02:39:03;64.54;44.39;75.27;;
60116;Laerm;62818;49.394;8.686;2023-01-10T02:40:51;61.09;44.51;71.92;;
60116;Laerm;62818;49.394;8.686;2023-01-10T02:42:07;61.84;44.97;71.63;;
60116;Laerm;62818;49.394;8.686;2023-01-10T02:43:31;65.38;44.54;76.41;;
60116;Laerm;62818;49.394;8.686;2023-01-10T02:44:51;65.68;44.54;75.79;;
60116;Laerm;62818;49.394;8.686;2023-01-10T02:45:59;64.00;44.58;75.09;;
60116;Laerm;62818;49.394;8.686;2023-01-10T02:47:08;67.49;44.43;77.41;;
60116;Laerm;62818;49.394;8.686;2023-01-10T02:48:11;67.46;44.69;76.87;;
60116;Laerm;62818;49.394;8.686;2023-01-10T02:49:14;63.73;44.07;73.92;;
60116;Laerm;62818;49.394;8.686;2023-01-10T02:51:34;63.98;44.54;72.00;;
60116;Laerm;62818;49.394;8.686;2023-01-10T02:52:37;63.16;44.43;72.93;;
60116;Laerm;62818;49.394;8.686;2023-01-10T02:53:53;63.21;44.27;71.95;;
60116;Laerm;62818;49.394;8.686;2023-01-10T02:55:01;65.76;44.47;76.85;;
60116;Laerm;62818;49.394;8.686;2023-01-10T02:56:21;66.89;44.19;76.93;;
60116;Laerm;62818;49.394;8.686;2023-01-10T03:01:47;64.43;44.35;75.79;;
60116;Laerm;62818;49.394;8.686;2023-01-10T03:04:46;65.51;44.15;77.10;;
60116;Laerm;62818;49.394;8.686;2023-01-10T03:07:53;62.62;44.54;75.87;;
60116;Laerm;62818;49.394;8.686;2023-01-10T03:09:12;65.65;44.51;77.51;;
60116;Laerm;62818;49.394;8.686;2023-01-10T03:11:38;67.38;44.23;77.30;;
60116;Laerm;62818;49.394;8.686;2023-01-10T03:12:55;61.80;44.47;72.07;;
60116;Laerm;62818;49.394;8.686;2023-01-10T03:14:00;63.83;45.80;74.44;;
60116;Laerm;62818;49.394;8.686;2023-01-10T03:15:08;64.02;45.07;75.42;;
60116;Laerm;62818;49.394;8.686;2023-01-10T03:16:17;64.00;44.73;75.87;;
60116;Laerm;62818;49.394;8.686;2023-01-10T03:17:21;65.04;44.65;75.61;;
60116;Laerm;62818;49.394;8.686;2023-01-10T03:18:36;65.09;44.80;75.45;;
60116;Laerm;62818;49.394;8.686;2023-01-10T03:19:49;65.36;44.76;76.31;;
60116;Laerm;62818;49.394;8.686;2023-01-10T03:20:54;64.62;45.36;76.09;;
60116;Laerm;62818;49.394;8.686;2023-01-10T03:22:00;65.88;46.25;75.05;;
60116;Laerm;62818;49.394;8.686;2023-01-10T03:23:06;67.13;45.17;76.59;;
60116;Laerm;62818;49.394;8.686;2023-01-10T03:24:18;63.04;45.11;75.21;;
60116;Laerm;62818;49.394;8.686;2023-01-10T03:25:25;65.20;45.25;75.09;;
60116;Laerm;62818;49.394;8.686;2023-01-10T03:29:13;63.91;45.48;72.25;;
60116;Laerm;62818;49.394;8.686;2023-01-10T03:31:46;63.12;44.65;71.81;;
60116;Laerm;62818;49.394;8.686;2023-01-10T03:32:58;63.22;45.48;72.49;;
60116;Laerm;62818;49.394;8.686;2023-01-10T03:34:00;63.54;46.55;72.07;;
60116;Laerm;62818;49.394;8.686;2023-01-10T03:35:05;64.03;46.97;71.81;;
60116;Laerm;62818;49.394;8.686;2023-01-10T03:36:28;63.17;46.91;71.52;;
60116;Laerm;62818;49.394;8.686;2023-01-10T03:40:57;62.01;45.20;72.12;;
60116;Laerm;62818;49.394;8.686;2023-01-10T03:45:22;62.06;44.62;73.32;;
60116;Laerm;62818;49.394;8.686;2023-01-10T03:46:36;62.68;44.65;72.22;;
60116;Laerm;62818;49.394;8.686;2023-01-10T03:47:44;64.60;44.83;74.96;;
60116;Laerm;62818;49.394;8.686;2023-01-10T03:48:53;63.34;44.69;72.48;;
60116;Laerm;62818;49.394;8.686;2023-01-10T03:50:03;64.98;45.23;75.12;;
60116;Laerm;62818;49.394;8.686;2023-01-10T03:51:07;65.48;45.48;75.47;;
60116;Laerm;62818;49.394;8.686;2023-01-10T03:52:15;65.10;45.20;75.13;;
60116;Laerm;62818;49.394;8.686;2023-01-10T03:53:19;65.42;45.54;75.62;;
60116;Laerm;62818;49.394;8.686;2023-01-10T03:54:22;63.41;45.94;72.32;;
60116;Laerm;62818;49.394;8.686;2023-01-10T03:55:27;63.56;45.27;73.22;;
60116;Laerm;62818;49.394;8.686;2023-01-10T03:56:28;66.27;45.11;75.27;;
60116;Laerm;62818;49.394;8.686;2023-01-10T03:57:30;64.76;45.14;76.05;;
60116;Laerm;62818;49.394;8.686;2023-01-10T03:58:32;63.45;45.67;71.92;;
60116;Laerm;62818;49.394;8.686;2023-01-10T03:59:33;63.18;45.42;71.69;;
60116;Laerm;62818;49.394;8.686;2023-01-10T04:00:33;63.87;45.42;71.77;;
60116;Laerm;62818;49.394;8.686;2023-01-10T04:01:36;62.94;45.42;71.77;;
60116;Laerm;62818;49.394;8.686;2023-01-10T04:02:39;63.72;45.72;71.63;;
60116;Laerm;62818;49.394;8.686;2023-01-10T04:03:39;64.09;45.33;71.61;;
60116;Laerm;62818;49.394;8.686;2023-01-10T04:04:42;62.97;45.14;71.04;;
60116;Laerm;62818;49.394;8.686;2023-01-10T04:05:48;63.05;45.54;72.40;;
60116;Laerm;62818;49.394;8.686;2023-01-10T04:06:51;63.41;45.51;71.31;;
60116;Laerm;62818;49.394;8.686;2023-01-10T04:07:54;66.50;45.72;75.93;;
60116;Laerm;62818;49.394;8.686;2023-01-10T04:08:55;66.54;45.94;75.75;;
60116;Laerm;62818;49.394;8.686;2023-01-10T04:09:55;68.46;45.86;77.24;;
60116;Laerm;62818;49.394;8.686;2023-01-10T04:10:56;65.96;45.57;75.75;;
60116;Laerm;62818;49.394;8.686;2023-01-10T04:11:56;67.17;46.41;76.12;;
60116;Laerm;62818;49.394;8.686;2023-01-10T04:13:00;67.57;46.52;76.94;;
60116;Laerm;62818;49.394;8.686;2023-01-10T04:14:02;64.82;47.06;75.27;;
60116;Laerm;62818;49.394;8.686;2023-01-10T04:15:05;65.56;46.30;75.62;;
60116;Laerm;62818;49.394;8.686;2023-01-10T04:16:06;66.70;45.91;76.40;;
60116;Laerm;62818;49.394;8.686;2023-01-10T04:17:07;68.58;45.27;77.71;;
60116;Laerm;62818;49.394;8.686;2023-01-10T04:18:10;63.17;45.57;73.95;;
60116;Laerm;62818;49.394;8.686;2023-01-10T04:19:12;65.19;45.77;75.90;;
60116;Laerm;62818;49.394;8.686;2023-01-10T04:20:12;68.82;46.02;77.90;;
60116;Laerm;62818;49.394;8.686;2023-01-10T04:21:13;67.79;45.42;77.01;;
60116;Laerm;62818;49.394;8.686;2023-01-10T04:22:14;67.73;46.30;76.47;;
60116;Laerm;62818;49.394;8.686;2023-01-10T04:23:16;67.96;46.52;77.58;;
60116;Laerm;62818;49.394;8.686;2023-01-10T04:24:20;68.21;46.45;78.34;;
60116;Laerm;62818;49.394;8.686;2023-01-10T04:25:23;66.22;46.28;76.50;;
60116;Laerm;62818;49.394;8.686;2023-01-10T04:26:26;66.26;47.06;75.36;;
60116;Laerm;62818;49.394;8.686;2023-01-10T04:27:26;64.25;45.75;73.16;;
60116;Laerm;62818;49.394;8.686;2023-01-10T04:28:33;65.99;46.40;76.26;;
60116;Laerm;62818;49.394;8.686;2023-01-10T04:29:34;67.37;46.35;76.35;;
60116;Laerm;62818;49.394;8.686;2023-01-10T04:30:34;68.42;45.07;76.85;;
60116;Laerm;62818;49.394;8.686;2023-01-10T04:31:37;66.56;46.97;76.77;;
60116;Laerm;62818;49.394;8.686;2023-01-10T04:32:42;66.29;45.97;75.68;;
60116;Laerm;62818;49.394;8.686;2023-01-10T04:33:45;67.08;47.61;76.21;;
60116;Laerm;62818;49.394;8.686;2023-01-10T04:34:45;67.00;45.72;75.90;;
60116;Laerm;62818;49.394;8.686;2023-01-10T04:35:48;68.38;45.36;77.58;;
60116;Laerm;62818;49.394;8.686;2023-01-10T04:36:49;65.38;46.64;76.25;;
60116;Laerm;62818;49.394;8.686;2023-01-10T04:37:50;64.29;45.89;72.77;;
60116;Laerm;62818;49.394;8.686;2023-01-10T04:38:55;63.67;45.72;72.87;;
60116;Laerm;62818;49.394;8.686;2023-01-10T04:39:58;66.78;45.30;75.90;;
60116;Laerm;62818;49.394;8.686;2023-01-10T04:40:58;66.72;45.80;75.67;;
60116;Laerm;62818;49.394;8.686;2023-01-10T04:41:59;67.59;45.77;76.91;;
60116;Laerm;62818;49.394;8.686;2023-01-10T04:43:01;67.39;46.10;76.59;;
60116;Laerm;62818;49.394;8.686;2023-01-10T04:44:02;64.42;45.86;75.88;;
60116;Laerm;62818;49.394;8.686;2023-01-10T04:45:04;66.12;45.33;76.85;;
60116;Laerm;62818;49.394;8.686;2023-01-10T04:46:09;66.62;45.57;75.87;;
60116;Laerm;62818;49.394;8.686;2023-01-10T04:47:11;63.80;45.36;72.35;;
60116;Laerm;62818;49.394;8.686;2023-01-10T04:48:12;66.09;46.20;75.78;;
60116;Laerm;62818;49.394;8.686;2023-01-10T04:49:13;64.70;46.25;72.05;;
60116;Laerm;62818;49.394;8.686;2023-01-10T04:50:16;67.23;46.66;76.24;;
60116;Laerm;62818;49.394;8.686;2023-01-10T04:51:17;65.59;45.63;75.97;;
60116;Laerm;62818;49.394;8.686;2023-01-10T04:52:20;68.23;46.50;77.17;;
60116;Laerm;62818;49.394;8.686;2023-01-10T04:53:23;68.95;46.40;78.23;;
60116;Laerm;62818;49.394;8.686;2023-01-10T04:54:24;69.02;46.23;78.28;;
60116;Laerm;62818;49.394;8.686;2023-01-10T04:55:33;69.26;45.60;78.82;;
60116;Laerm;62818;49.394;8.686;2023-01-10T04:56:33;67.45;47.36;76.08;;
60116;Laerm;62818;49.394;8.686;2023-01-10T04:57:37;67.68;46.23;76.83;;
60116;Laerm;62818;49.394;8.686;2023-01-10T04:58:37;65.11;46.48;76.52;;
60116;Laerm;62818;49.394;8.686;2023-01-10T04:59:38;67.88;46.91;77.17;;
60116;Laerm;62818;49.394;8.686;2023-01-10T05:00:39;66.85;48.46;75.61;;
60116;Laerm;62818;49.394;8.686;2023-01-10T05:01:42;65.60;46.05;75.47;;
60116;Laerm;62818;49.394;8.686;2023-01-10T05:02:42;64.18;46.25;72.91;;
60116;Laerm;62818;49.394;8.686;2023-01-10T05:03:51;65.72;47.08;75.53;;
60116;Laerm;62818;49.394;8.686;2023-01-10T05:04:51;67.19;46.84;76.86;;
60116;Laerm;62818;49.394;8.686;2023-01-10T05:05:57;64.90;51.52;76.42;;
60116;Laerm;62818;49.394;8.686;2023-01-10T05:07:01;65.21;50.34;76.07;;
60116;Laerm;62818;49.394;8.686;2023-01-10T05:08:04;66.73;47.63;76.67;;
60116;Laerm;62818;49.394;8.686;2023-01-10T05:09:07;68.07;45.77;77.60;;
60116;Laerm;62818;49.394;8.686;2023-01-10T05:10:09;68.23;48.99;76.60;;
60116;Laerm;62818;49.394;8.686;2023-01-10T05:11:10;68.27;50.66;76.90;;
60116;Laerm;62818;49.394;8.686;2023-01-10T05:12:15;68.23;46.66;77.79;;
60116;Laerm;62818;49.394;8.686;2023-01-10T05:13:18;68.80;51.78;78.09;;
60116;Laerm;62818;49.394;8.686;2023-01-10T05:14:21;67.31;49.71;75.97;;
60116;Laerm;62818;49.394;8.686;2023-01-10T05:15:21;66.20;50.77;75.96;;
60116;Laerm;62818;49.394;8.686;2023-01-10T05:16:22;65.20;52.83;75.84;;
60116;Laerm;62818;49.394;8.686;2023-01-10T05:17:25;67.45;49.73;79.66;;
60116;Laerm;62818;49.394;8.686;2023-01-10T05:18:28;64.63;49.23;72.91;;
60116;Laerm;62818;49.394;8.686;2023-01-10T05:19:34;65.15;47.74;75.79;;
60116;Laerm;62818;49.394;8.686;2023-01-10T05:20:34;66.40;48.25;75.93;;
60116;Laerm;62818;49.394;8.686;2023-01-10T05:21:38;65.97;48.88;75.11;;
60116;Laerm;62818;49.394;8.686;2023-01-10T05:22:38;66.66;47.61;75.79;;
60116;Laerm;62818;49.394;8.686;2023-01-10T05:23:39;66.43;47.46;75.42;;
60116;Laerm;62818;49.394;8.686;2023-01-10T05:24:42;65.32;47.72;76.15;;
60116;Laerm;62818;49.394;8.686;2023-01-10T05:25:46;65.51;48.88;75.96;;
60116;Laerm;62818;49.394;8.686;2023-01-10T05:26:46;66.77;47.59;76.30;;
60116;Laerm;62818;49.394;8.686;2023-01-10T05:27:49;65.96;52.07;75.28;;
60116;Laerm;62818;49.394;8.686;2023-01-10T05:28:50;67.85;48.43;76.50;;
60116;Laerm;62818;49.394;8.686;2023-01-10T05:29:50;68.16;47.44;77.20;;
60116;Laerm;62818;49.394;8.686;2023-01-10T05:30:53;65.23;47.54;75.95;;
60116;Laerm;62818;49.394;8.686;2023-01-10T05:31:56;65.36;47.22;76.28;;
60116;Laerm;62818;49.394;8.686;2023-01-10T05:32:59;63.25;47.68;71.40;;
60116;Laerm;62818;49.394;8.686;2023-01-10T05:34:02;63.54;47.65;71.37;;
60116;Laerm;62818;49.394;8.686;2023-01-10T05:35:05;65.41;47.81;75.22;;
60116;Laerm;62818;49.394;8.686;2023-01-10T05:36:06;64.56;47.52;73.16;;
60116;Laerm;62818;49.394;8.686;2023-01-10T05:37:07;65.66;49.18;72.09;;
60116;Laerm;62818;49.394;8.686;2023-01-10T05:38:07;65.08;48.16;71.89;;
60116;Laerm;62818;49.394;8.686;2023-01-10T05:39:08;63.64;46.71;71.67;;
60116;Laerm;62818;49.394;8.686;2023-01-10T05:40:11;64.79;47.57;74.05;;
60116;Laerm;62818;49.394;8.686;2023-01-10T05:41:12;67.19;47.76;75.58;;
60116;Laerm;62818;49.394;8.686;2023-01-10T05:42:17;67.05;46.95;76.47;;
60116;Laerm;62818;49.394;8.686;2023-01-10T05:43:18;67.13;46.76;75.57;;
60116;Laerm;62818;49.394;8.686;2023-01-10T05:44:21;66.44;51.74;76.10;;
60116;Laerm;62818;49.394;8.686;2023-01-10T05:45:21;68.89;48.48;78.34;;
60116;Laerm;62818;49.394;8.686;2023-01-10T05:46:24;69.01;47.30;78.00;;
60116;Laerm;62818;49.394;8.686;2023-01-10T05:47:28;69.81;49.12;78.39;;
60116;Laerm;62818;49.394;8.686;2023-01-10T05:48:31;67.40;47.91;78.02;;
60116;Laerm;62818;49.394;8.686;2023-01-10T05:49:33;65.79;46.97;75.57;;
60116;Laerm;62818;49.394;8.686;2023-01-10T05:50:34;68.19;48.58;76.66;;
60116;Laerm;62818;49.394;8.686;2023-01-10T05:51:40;67.95;48.91;76.84;;
60116;Laerm;62818;49.394;8.686;2023-01-10T05:52:44;67.76;48.20;77.14;;
60116;Laerm;62818;49.394;8.686;2023-01-10T05:53:49;66.94;46.71;76.08;;
60116;Laerm;62818;49.394;8.686;2023-01-10T05:54:52;69.18;50.03;78.07;;
60116;Laerm;62818;49.394;8.686;2023-01-10T05:55:58;69.46;47.74;78.35;;
60116;Laerm;62818;49.394;8.686;2023-01-10T05:57:01;70.39;49.56;78.43;;
60116;Laerm;62818;49.394;8.686;2023-01-10T05:58:02;68.11;50.83;76.83;;
60116;Laerm;62818;49.394;8.686;2023-01-10T05:59:05;68.49;50.13;78.51;;
60116;Laerm;62818;49.394;8.686;2023-01-10T06:00:07;67.31;47.68;76.82;;
60116;Laerm;62818;49.394;8.686;2023-01-10T06:01:07;64.72;50.65;74.01;;
60116;Laerm;62818;49.394;8.686;2023-01-10T06:02:10;67.21;50.85;77.06;;
60116;Laerm;62818;49.394;8.686;2023-01-10T06:03:11;69.00;49.11;78.67;;
60116;Laerm;62818;49.394;8.686;2023-01-10T06:04:11;68.88;47.20;77.94;;
60116;Laerm;62818;49.394;8.686;2023-01-10T06:05:11;69.10;48.84;77.42;;
60116;Laerm;62818;49.394;8.686;2023-01-10T06:06:12;67.07;47.08;76.64;;
60116;Laerm;62818;49.394;8.686;2023-01-10T06:07:13;66.54;47.79;75.65;;
60116;Laerm;62818;49.394;8.686;2023-01-10T06:08:19;68.07;49.53;77.00;;
60116;Laerm;62818;49.394;8.686;2023-01-10T06:09:24;66.37;50.16;76.64;;
60116;Laerm;62818;49.394;8.686;2023-01-10T06:10:27;68.43;48.39;78.32;;
60116;Laerm;62818;49.394;8.686;2023-01-10T06:11:28;69.41;51.80;79.06;;
60116;Laerm;62818;49.394;8.686;2023-01-10T06:12:29;67.18;48.77;78.06;;
60116;Laerm;62818;49.394;8.686;2023-01-10T06:13:29;68.54;48.84;77.82;;
60116;Laerm;62818;49.394;8.686;2023-01-10T06:14:35;68.62;49.75;76.87;;
60116;Laerm;62818;49.394;8.686;2023-01-10T06:15:36;67.77;49.40;76.47;;
60116;Laerm;62818;49.394;8.686;2023-01-10T06:16:39;66.98;48.94;77.14;;
60116;Laerm;62818;49.394;8.686;2023-01-10T06:17:43;67.66;49.30;77.20;;
60116;Laerm;62818;49.394;8.686;2023-01-10T06:18:49;68.69;49.67;76.97;;
60116;Laerm;62818;49.394;8.686;2023-01-10T06:19:50;67.83;50.49;77.80;;
60116;Laerm;62818;49.394;8.686;2023-01-10T06:20:51;69.88;47.79;78.84;;
60116;Laerm;62818;49.394;8.686;2023-01-10T06:21:54;69.75;50.01;78.58;;
60116;Laerm;62818;49.394;8.686;2023-01-10T06:22:57;68.46;48.13;77.25;;
60116;Laerm;62818;49.394;8.686;2023-01-10T06:24:06;68.59;49.43;78.15;;
60116;Laerm;62818;49.394;8.686;2023-01-10T06:25:13;68.21;50.92;76.32;;
60116;Laerm;62818;49.394;8.686;2023-01-10T06:26:18;67.06;49.62;76.96;;
60116;Laerm;62818;49.394;8.686;2023-01-10T06:27:20;67.96;48.18;76.68;;
60116;Laerm;62818;49.394;8.686;2023-01-10T06:28:23;68.20;49.84;77.98;;
60116;Laerm;62818;49.394;8.686;2023-01-10T06:29:24;69.84;56.85;78.27;;
60116;Laerm;62818;49.394;8.686;2023-01-10T06:30:29;65.72;49.95;77.25;;
60116;Laerm;62818;49.394;8.686;2023-01-10T06:31:30;68.11;49.10;77.97;;
60116;Laerm;62818;49.394;8.686;2023-01-10T06:32:32;68.03;51.37;77.23;;
60116;Laerm;62818;49.394;8.686;2023-01-10T06:33:36;67.51;49.50;77.60;;
60116;Laerm;62818;49.394;8.686;2023-01-10T06:34:38;70.11;49.49;79.16;;
60116;Laerm;62818;49.394;8.686;2023-01-10T06:35:39;69.68;50.15;78.38;;
60116;Laerm;62818;49.394;8.686;2023-01-10T06:36:42;69.17;52.23;78.75;;
60116;Laerm;62818;49.394;8.686;2023-01-10T06:37:43;70.43;50.58;79.00;;
60116;Laerm;62818;49.394;8.686;2023-01-10T06:38:51;66.82;50.27;77.19;;
60116;Laerm;62818;49.394;8.686;2023-01-10T06:39:51;69.83;56.79;78.53;;